sensor_id;sensor_type;location;lat;lon;timestamp;P1;durP1;ratioP1;P2;durP2;ratioP2
32319;SDS011;19080;51.750;5.888;2023-05-01T00:01:12;6.00;;;2.40;;
32319;SDS011;19080;51.750;5.888;2023-05-01T00:03:39;5.07;;;2.40;;
32319;SDS011;19080;51.750;5.888;2023-05-01T00:06:07;5.88;;;2.45;;
32319;SDS011;19080;51.750;5.888;2023-05-01T00:08:34;4.93;;;2.33;;
32319;SDS011;19080;51.750;5.888;2023-05-01T00:11:03;4.25;;;2.40;;
32319;SDS011;19080;51.750;5.888;2023-05-01T00:13:31;4.95;;;2.00;;
32319;SDS011;19080;51.750;5.888;2023-05-01T00:15:59;2.75;;;1.98;;
32319;SDS011;19080;51.750;5.888;2023-05-01T00:18:28;3.35;;;2.30;;
32319;SDS011;19080;51.750;5.888;2023-05-01T00:20:55;6.13;;;2.95;;
32319;SDS011;19080;51.750;5.888;2023-05-01T00:23:21;6.90;;;2.40;;
32319;SDS011;19080;51.750;5.888;2023-05-01T00:25:48;11.05;;;2.75;;
32319;SDS011;19080;51.750;5.888;2023-05-01T00:28:16;4.20;;;2.60;;
32319;SDS011;19080;51.750;5.888;2023-05-01T00:30:44;7.03;;;2.63;;
32319;SDS011;19080;51.750;5.888;2023-05-01T00:33:12;5.93;;;2.30;;
32319;SDS011;19080;51.750;5.888;2023-05-01T00:35:39;4.60;;;2.28;;
32319;SDS011;19080;51.750;5.888;2023-05-01T00:38:09;4.15;;;2.42;;
32319;SDS011;19080;51.750;5.888;2023-05-01T00:40:42;4.90;;;2.50;;
32319;SDS011;19080;51.750;5.888;2023-05-01T00:43:12;6.85;;;2.83;;
32319;SDS011;19080;51.750;5.888;2023-05-01T00:45:41;4.70;;;2.40;;
32319;SDS011;19080;51.750;5.888;2023-05-01T00:48:10;7.50;;;2.67;;
32319;SDS011;19080;51.750;5.888;2023-05-01T00:50:37;6.30;;;2.30;;
32319;SDS011;19080;51.750;5.888;2023-05-01T00:53:05;5.93;;;2.75;;
32319;SDS011;19080;51.750;5.888;2023-05-01T00:55:31;4.55;;;2.30;;
32319;SDS011;19080;51.750;5.888;2023-05-01T00:57:59;9.00;;;3.05;;
32319;SDS011;19080;51.750;5.888;2023-05-01T01:00:26;5.40;;;2.63;;
32319;SDS011;19080;51.750;5.888;2023-05-01T01:02:54;8.60;;;2.97;;
32319;SDS011;19080;51.750;5.888;2023-05-01T01:05:23;4.65;;;2.50;;
32319;SDS011;19080;51.750;5.888;2023-05-01T01:10:39;3.13;;;2.55;;
32319;SDS011;19080;51.750;5.888;2023-05-01T01:13:18;5.30;;;2.70;;
32319;SDS011;19080;51.750;5.888;2023-05-01T01:18:47;10.15;;;3.00;;
32319;SDS011;19080;51.750;5.888;2023-05-01T01:21:23;4.40;;;2.80;;
32319;SDS011;19080;51.750;5.888;2023-05-01T01:32:09;5.38;;;2.92;;
32319;SDS011;19080;51.750;5.888;2023-05-01T01:35:09;7.00;;;3.38;;
32319;SDS011;19080;51.750;5.888;2023-05-01T01:37:47;3.90;;;2.58;;
32319;SDS011;19080;51.750;5.888;2023-05-01T01:40:41;4.20;;;2.85;;
32319;SDS011;19080;51.750;5.888;2023-05-01T01:43:09;5.78;;;3.00;;
32319;SDS011;19080;51.750;5.888;2023-05-01T01:45:40;3.05;;;2.30;;
32319;SDS011;19080;51.750;5.888;2023-05-01T01:48:10;5.10;;;2.53;;
32319;SDS011;19080;51.750;5.888;2023-05-01T01:50:39;7.95;;;2.88;;
32319;SDS011;19080;51.750;5.888;2023-05-01T01:53:08;6.65;;;3.25;;
32319;SDS011;19080;51.750;5.888;2023-05-01T01:55:38;10.77;;;3.40;;
32319;SDS011;19080;51.750;5.888;2023-05-01T01:58:07;5.45;;;3.15;;
32319;SDS011;19080;51.750;5.888;2023-05-01T02:00:36;3.33;;;3.00;;
32319;SDS011;19080;51.750;5.888;2023-05-01T02:03:04;5.90;;;2.92;;
32319;SDS011;19080;51.750;5.888;2023-05-01T02:05:31;5.80;;;2.65;;
32319;SDS011;19080;51.750;5.888;2023-05-01T02:08:01;5.85;;;2.95;;
32319;SDS011;19080;51.750;5.888;2023-05-01T02:10:31;3.85;;;2.65;;
32319;SDS011;19080;51.750;5.888;2023-05-01T02:12:58;5.68;;;3.30;;
32319;SDS011;19080;51.750;5.888;2023-05-01T02:15:27;7.80;;;3.05;;
32319;SDS011;19080;51.750;5.888;2023-05-01T02:17:56;3.47;;;2.60;;
32319;SDS011;19080;51.750;5.888;2023-05-01T02:20:24;6.70;;;3.10;;
32319;SDS011;19080;51.750;5.888;2023-05-01T02:22:51;6.38;;;3.70;;
32319;SDS011;19080;51.750;5.888;2023-05-01T02:25:19;4.30;;;3.10;;
32319;SDS011;19080;51.750;5.888;2023-05-01T02:27:46;8.13;;;3.65;;
32319;SDS011;19080;51.750;5.888;2023-05-01T02:30:19;4.20;;;3.03;;
32319;SDS011;19080;51.750;5.888;2023-05-01T02:32:45;4.30;;;3.00;;
32319;SDS011;19080;51.750;5.888;2023-05-01T02:35:12;4.82;;;2.95;;
32319;SDS011;19080;51.750;5.888;2023-05-01T02:37:39;8.07;;;3.38;;
32319;SDS011;19080;51.750;5.888;2023-05-01T02:40:06;8.27;;;3.42;;
32319;SDS011;19080;51.750;5.888;2023-05-01T02:42:34;9.38;;;3.65;;
32319;SDS011;19080;51.750;5.888;2023-05-01T02:45:03;5.13;;;3.35;;
32319;SDS011;19080;51.750;5.888;2023-05-01T02:47:33;6.22;;;3.60;;
32319;SDS011;19080;51.750;5.888;2023-05-01T02:50:02;7.78;;;3.42;;
32319;SDS011;19080;51.750;5.888;2023-05-01T02:52:31;6.35;;;3.53;;
32319;SDS011;19080;51.750;5.888;2023-05-01T02:55:21;7.15;;;3.28;;
32319;SDS011;19080;51.750;5.888;2023-05-01T02:57:49;8.05;;;3.50;;
32319;SDS011;19080;51.750;5.888;2023-05-01T03:00:16;3.63;;;2.70;;
32319;SDS011;19080;51.750;5.888;2023-05-01T03:02:44;4.90;;;2.90;;
32319;SDS011;19080;51.750;5.888;2023-05-01T03:05:12;6.25;;;3.13;;
32319;SDS011;19080;51.750;5.888;2023-05-01T03:07:39;5.05;;;3.13;;
32319;SDS011;19080;51.750;5.888;2023-05-01T03:10:06;6.20;;;3.97;;
32319;SDS011;19080;51.750;5.888;2023-05-01T03:12:33;5.50;;;3.17;;
32319;SDS011;19080;51.750;5.888;2023-05-01T03:14:59;6.10;;;3.45;;
32319;SDS011;19080;51.750;5.888;2023-05-01T03:17:26;5.38;;;3.42;;
32319;SDS011;19080;51.750;5.888;2023-05-01T03:19:53;6.18;;;3.75;;
32319;SDS011;19080;51.750;5.888;2023-05-01T03:22:20;5.13;;;3.42;;
32319;SDS011;19080;51.750;5.888;2023-05-01T03:24:46;5.90;;;3.55;;
32319;SDS011;19080;51.750;5.888;2023-05-01T03:27:13;6.72;;;3.38;;
32319;SDS011;19080;51.750;5.888;2023-05-01T03:29:40;5.53;;;3.30;;
32319;SDS011;19080;51.750;5.888;2023-05-01T03:32:06;4.75;;;3.22;;
32319;SDS011;19080;51.750;5.888;2023-05-01T03:34:33;4.78;;;3.33;;
32319;SDS011;19080;51.750;5.888;2023-05-01T03:37:00;4.78;;;3.47;;
32319;SDS011;19080;51.750;5.888;2023-05-01T03:39:27;5.60;;;3.50;;
32319;SDS011;19080;51.750;5.888;2023-05-01T03:42:11;8.05;;;3.83;;
32319;SDS011;19080;51.750;5.888;2023-05-01T03:44:40;5.85;;;4.05;;
32319;SDS011;19080;51.750;5.888;2023-05-01T03:47:07;5.30;;;3.78;;
32319;SDS011;19080;51.750;5.888;2023-05-01T03:49:38;6.85;;;3.85;;
32319;SDS011;19080;51.750;5.888;2023-05-01T03:52:04;8.38;;;3.72;;
32319;SDS011;19080;51.750;5.888;2023-05-01T03:54:31;4.65;;;3.22;;
32319;SDS011;19080;51.750;5.888;2023-05-01T03:57:08;6.90;;;3.90;;
32319;SDS011;19080;51.750;5.888;2023-05-01T03:59:35;11.55;;;4.55;;
32319;SDS011;19080;51.750;5.888;2023-05-01T04:02:03;5.28;;;3.13;;
32319;SDS011;19080;51.750;5.888;2023-05-01T04:04:32;8.00;;;4.50;;
32319;SDS011;19080;51.750;5.888;2023-05-01T04:06:59;7.88;;;3.90;;
32319;SDS011;19080;51.750;5.888;2023-05-01T04:09:26;7.00;;;3.80;;
32319;SDS011;19080;51.750;5.888;2023-05-01T04:11:52;5.63;;;3.63;;
32319;SDS011;19080;51.750;5.888;2023-05-01T04:14:19;5.82;;;3.83;;
32319;SDS011;19080;51.750;5.888;2023-05-01T04:16:45;5.72;;;3.35;;
32319;SDS011;19080;51.750;5.888;2023-05-01T04:19:12;7.53;;;4.05;;
32319;SDS011;19080;51.750;5.888;2023-05-01T04:21:42;7.57;;;4.25;;
32319;SDS011;19080;51.750;5.888;2023-05-01T04:24:08;7.43;;;3.80;;
32319;SDS011;19080;51.750;5.888;2023-05-01T04:26:35;9.80;;;4.18;;
32319;SDS011;19080;51.750;5.888;2023-05-01T04:29:02;6.22;;;3.70;;
32319;SDS011;19080;51.750;5.888;2023-05-01T04:31:28;5.63;;;3.50;;
32319;SDS011;19080;51.750;5.888;2023-05-01T04:33:55;6.57;;;4.05;;
32319;SDS011;19080;51.750;5.888;2023-05-01T04:36:22;7.68;;;4.00;;
32319;SDS011;19080;51.750;5.888;2023-05-01T04:38:48;5.82;;;3.83;;
32319;SDS011;19080;51.750;5.888;2023-05-01T04:41:16;8.32;;;3.90;;
32319;SDS011;19080;51.750;5.888;2023-05-01T04:43:44;6.20;;;4.25;;
32319;SDS011;19080;51.750;5.888;2023-05-01T04:46:12;5.63;;;4.30;;
32319;SDS011;19080;51.750;5.888;2023-05-01T04:48:39;5.72;;;4.20;;
32319;SDS011;19080;51.750;5.888;2023-05-01T04:51:06;6.53;;;4.70;;
32319;SDS011;19080;51.750;5.888;2023-05-01T04:53:33;12.07;;;5.05;;
32319;SDS011;19080;51.750;5.888;2023-05-01T04:56:01;6.43;;;4.20;;
32319;SDS011;19080;51.750;5.888;2023-05-01T04:58:29;6.68;;;4.28;;
32319;SDS011;19080;51.750;5.888;2023-05-01T05:01:01;8.77;;;4.47;;
32319;SDS011;19080;51.750;5.888;2023-05-01T05:03:27;7.22;;;4.28;;
32319;SDS011;19080;51.750;5.888;2023-05-01T05:05:54;7.15;;;4.40;;
32319;SDS011;19080;51.750;5.888;2023-05-01T05:08:22;4.32;;;3.40;;
32319;SDS011;19080;51.750;5.888;2023-05-01T05:10:57;8.32;;;4.07;;
32319;SDS011;19080;51.750;5.888;2023-05-01T05:13:31;7.63;;;4.00;;
32319;SDS011;19080;51.750;5.888;2023-05-01T05:16:00;6.10;;;4.20;;
32319;SDS011;19080;51.750;5.888;2023-05-01T05:18:27;8.43;;;4.45;;
32319;SDS011;19080;51.750;5.888;2023-05-01T05:20:55;6.22;;;4.20;;
32319;SDS011;19080;51.750;5.888;2023-05-01T05:23:21;5.97;;;4.25;;
32319;SDS011;19080;51.750;5.888;2023-05-01T05:25:48;5.60;;;3.85;;
32319;SDS011;19080;51.750;5.888;2023-05-01T05:28:15;8.20;;;4.25;;
32319;SDS011;19080;51.750;5.888;2023-05-01T05:30:42;6.88;;;4.18;;
32319;SDS011;19080;51.750;5.888;2023-05-01T05:33:13;11.30;;;4.85;;
32319;SDS011;19080;51.750;5.888;2023-05-01T05:35:40;7.72;;;4.35;;
32319;SDS011;19080;51.750;5.888;2023-05-01T05:38:07;8.23;;;4.40;;
32319;SDS011;19080;51.750;5.888;2023-05-01T05:40:36;6.32;;;4.47;;
32319;SDS011;19080;51.750;5.888;2023-05-01T05:43:02;5.03;;;3.60;;
32319;SDS011;19080;51.750;5.888;2023-05-01T05:45:33;7.13;;;4.07;;
32319;SDS011;19080;51.750;5.888;2023-05-01T05:48:00;9.07;;;4.78;;
32319;SDS011;19080;51.750;5.888;2023-05-01T05:50:29;7.90;;;4.28;;
32319;SDS011;19080;51.750;5.888;2023-05-01T05:52:56;5.72;;;3.47;;
32319;SDS011;19080;51.750;5.888;2023-05-01T05:55:24;8.95;;;4.15;;
32319;SDS011;19080;51.750;5.888;2023-05-01T05:58:02;7.70;;;4.32;;
32319;SDS011;19080;51.750;5.888;2023-05-01T06:00:29;8.48;;;4.25;;
32319;SDS011;19080;51.750;5.888;2023-05-01T06:02:59;5.28;;;3.70;;
32319;SDS011;19080;51.750;5.888;2023-05-01T06:05:28;4.80;;;4.05;;
32319;SDS011;19080;51.750;5.888;2023-05-01T06:07:55;7.45;;;4.30;;
32319;SDS011;19080;51.750;5.888;2023-05-01T06:10:21;5.93;;;4.38;;
32319;SDS011;19080;51.750;5.888;2023-05-01T06:12:48;6.70;;;4.50;;
32319;SDS011;19080;51.750;5.888;2023-05-01T06:15:29;8.68;;;4.45;;
32319;SDS011;19080;51.750;5.888;2023-05-01T06:17:56;6.20;;;4.28;;
32319;SDS011;19080;51.750;5.888;2023-05-01T06:20:22;10.00;;;4.63;;
32319;SDS011;19080;51.750;5.888;2023-05-01T06:22:49;7.88;;;4.32;;
32319;SDS011;19080;51.750;5.888;2023-05-01T06:25:24;6.55;;;4.47;;
32319;SDS011;19080;51.750;5.888;2023-05-01T06:27:50;6.95;;;4.50;;
32319;SDS011;19080;51.750;5.888;2023-05-01T06:30:19;6.68;;;4.28;;
32319;SDS011;19080;51.750;5.888;2023-05-01T06:32:47;11.07;;;5.03;;
32319;SDS011;19080;51.750;5.888;2023-05-01T06:35:15;8.90;;;5.20;;
32319;SDS011;19080;51.750;5.888;2023-05-01T06:37:41;6.10;;;4.22;;
32319;SDS011;19080;51.750;5.888;2023-05-01T06:40:10;6.80;;;4.53;;
32319;SDS011;19080;51.750;5.888;2023-05-01T06:42:37;8.60;;;4.68;;
32319;SDS011;19080;51.750;5.888;2023-05-01T06:45:05;6.75;;;4.18;;
32319;SDS011;19080;51.750;5.888;2023-05-01T06:47:33;6.65;;;4.53;;
32319;SDS011;19080;51.750;5.888;2023-05-01T06:50:00;5.85;;;4.63;;
32319;SDS011;19080;51.750;5.888;2023-05-01T06:52:31;5.10;;;3.97;;
32319;SDS011;19080;51.750;5.888;2023-05-01T06:54:58;6.75;;;4.80;;
32319;SDS011;19080;51.750;5.888;2023-05-01T06:57:25;6.15;;;4.22;;
32319;SDS011;19080;51.750;5.888;2023-05-01T06:59:52;7.03;;;5.30;;
32319;SDS011;19080;51.750;5.888;2023-05-01T07:02:20;7.72;;;4.88;;
32319;SDS011;19080;51.750;5.888;2023-05-01T07:04:47;6.70;;;4.30;;
32319;SDS011;19080;51.750;5.888;2023-05-01T07:07:14;7.03;;;4.45;;
32319;SDS011;19080;51.750;5.888;2023-05-01T07:09:40;8.77;;;4.88;;
32319;SDS011;19080;51.750;5.888;2023-05-01T07:12:07;8.02;;;4.82;;
32319;SDS011;19080;51.750;5.888;2023-05-01T07:14:33;5.90;;;4.72;;
32319;SDS011;19080;51.750;5.888;2023-05-01T07:17:02;8.02;;;4.65;;
32319;SDS011;19080;51.750;5.888;2023-05-01T07:19:28;5.32;;;4.38;;
32319;SDS011;19080;51.750;5.888;2023-05-01T07:21:55;8.02;;;4.75;;
32319;SDS011;19080;51.750;5.888;2023-05-01T07:24:22;8.52;;;4.53;;
32319;SDS011;19080;51.750;5.888;2023-05-01T07:26:49;6.43;;;4.13;;
32319;SDS011;19080;51.750;5.888;2023-05-01T07:29:15;7.22;;;4.18;;
32319;SDS011;19080;51.750;5.888;2023-05-01T07:31:42;5.82;;;4.47;;
32319;SDS011;19080;51.750;5.888;2023-05-01T07:34:09;6.68;;;3.97;;
32319;SDS011;19080;51.750;5.888;2023-05-01T07:36:36;9.52;;;4.18;;
32319;SDS011;19080;51.750;5.888;2023-05-01T07:39:03;7.15;;;4.22;;
32319;SDS011;19080;51.750;5.888;2023-05-01T07:41:31;7.82;;;4.80;;
32319;SDS011;19080;51.750;5.888;2023-05-01T07:43:58;7.13;;;4.53;;
32319;SDS011;19080;51.750;5.888;2023-05-01T07:46:25;6.95;;;3.97;;
32319;SDS011;19080;51.750;5.888;2023-05-01T07:48:52;7.07;;;3.60;;
32319;SDS011;19080;51.750;5.888;2023-05-01T07:51:19;4.78;;;3.10;;
32319;SDS011;19080;51.750;5.888;2023-05-01T07:53:46;6.75;;;2.92;;
32319;SDS011;19080;51.750;5.888;2023-05-01T07:56:13;5.47;;;3.55;;
32319;SDS011;19080;51.750;5.888;2023-05-01T07:58:41;6.15;;;3.80;;
32319;SDS011;19080;51.750;5.888;2023-05-01T08:01:08;7.00;;;3.75;;
32319;SDS011;19080;51.750;5.888;2023-05-01T08:03:34;6.18;;;3.47;;
32319;SDS011;19080;51.750;5.888;2023-05-01T08:06:01;7.70;;;3.88;;
32319;SDS011;19080;51.750;5.888;2023-05-01T08:08:28;5.57;;;3.22;;
32319;SDS011;19080;51.750;5.888;2023-05-01T08:10:55;4.80;;;3.45;;
32319;SDS011;19080;51.750;5.888;2023-05-01T08:13:21;4.50;;;3.03;;
32319;SDS011;19080;51.750;5.888;2023-05-01T08:15:48;8.13;;;3.88;;
32319;SDS011;19080;51.750;5.888;2023-05-01T08:18:15;7.15;;;4.00;;
32319;SDS011;19080;51.750;5.888;2023-05-01T08:20:46;5.78;;;3.65;;
32319;SDS011;19080;51.750;5.888;2023-05-01T08:23:14;5.25;;;3.92;;
32319;SDS011;19080;51.750;5.888;2023-05-01T08:25:41;6.88;;;4.30;;
32319;SDS011;19080;51.750;5.888;2023-05-01T08:28:08;6.95;;;4.40;;
32319;SDS011;19080;51.750;5.888;2023-05-01T08:30:35;9.60;;;4.85;;
32319;SDS011;19080;51.750;5.888;2023-05-01T08:33:02;6.97;;;4.38;;
32319;SDS011;19080;51.750;5.888;2023-05-01T08:35:29;7.47;;;4.63;;
32319;SDS011;19080;51.750;5.888;2023-05-01T08:37:55;7.22;;;4.53;;
32319;SDS011;19080;51.750;5.888;2023-05-01T08:40:23;8.65;;;4.43;;
32319;SDS011;19080;51.750;5.888;2023-05-01T08:42:51;6.60;;;5.00;;
32319;SDS011;19080;51.750;5.888;2023-05-01T08:45:20;6.45;;;4.35;;
32319;SDS011;19080;51.750;5.888;2023-05-01T08:47:49;6.88;;;4.80;;
32319;SDS011;19080;51.750;5.888;2023-05-01T08:50:19;7.25;;;4.53;;
32319;SDS011;19080;51.750;5.888;2023-05-01T08:52:48;7.82;;;4.97;;
32319;SDS011;19080;51.750;5.888;2023-05-01T08:55:17;7.63;;;4.55;;
32319;SDS011;19080;51.750;5.888;2023-05-01T08:57:46;6.93;;;4.35;;
32319;SDS011;19080;51.750;5.888;2023-05-01T09:00:15;6.15;;;4.88;;
32319;SDS011;19080;51.750;5.888;2023-05-01T09:02:45;7.47;;;4.75;;
32319;SDS011;19080;51.750;5.888;2023-05-01T09:05:14;6.85;;;4.65;;
32319;SDS011;19080;51.750;5.888;2023-05-01T09:07:42;9.75;;;5.40;;
32319;SDS011;19080;51.750;5.888;2023-05-01T09:10:11;6.97;;;4.70;;
32319;SDS011;19080;51.750;5.888;2023-05-01T09:12:39;6.45;;;4.15;;
32319;SDS011;19080;51.750;5.888;2023-05-01T09:15:07;9.30;;;5.05;;
32319;SDS011;19080;51.750;5.888;2023-05-01T09:17:35;7.10;;;5.05;;
32319;SDS011;19080;51.750;5.888;2023-05-01T09:20:02;5.50;;;4.78;;
32319;SDS011;19080;51.750;5.888;2023-05-01T09:22:31;7.05;;;4.88;;
32319;SDS011;19080;51.750;5.888;2023-05-01T09:24:59;6.53;;;4.68;;
32319;SDS011;19080;51.750;5.888;2023-05-01T09:27:26;6.32;;;4.68;;
32319;SDS011;19080;51.750;5.888;2023-05-01T09:29:53;7.35;;;4.80;;
32319;SDS011;19080;51.750;5.888;2023-05-01T09:32:21;11.40;;;5.30;;
32319;SDS011;19080;51.750;5.888;2023-05-01T09:34:51;8.85;;;5.13;;
32319;SDS011;19080;51.750;5.888;2023-05-01T09:37:26;9.38;;;4.43;;
32319;SDS011;19080;51.750;5.888;2023-05-01T09:42:32;8.90;;;4.07;;
32319;SDS011;19080;51.750;5.888;2023-05-01T09:45:02;6.82;;;5.03;;
32319;SDS011;19080;51.750;5.888;2023-05-01T09:47:30;7.22;;;4.38;;
32319;SDS011;19080;51.750;5.888;2023-05-01T09:49:57;8.77;;;4.70;;
32319;SDS011;19080;51.750;5.888;2023-05-01T09:52:25;7.07;;;4.53;;
32319;SDS011;19080;51.750;5.888;2023-05-01T09:57:39;5.57;;;4.20;;
32319;SDS011;19080;51.750;5.888;2023-05-01T10:00:08;7.75;;;4.53;;
32319;SDS011;19080;51.750;5.888;2023-05-01T10:02:37;7.75;;;5.45;;
32319;SDS011;19080;51.750;5.888;2023-05-01T10:05:05;8.20;;;4.75;;
32319;SDS011;19080;51.750;5.888;2023-05-01T10:07:32;7.22;;;4.70;;
32319;SDS011;19080;51.750;5.888;2023-05-01T10:10:18;7.18;;;5.32;;
32319;SDS011;19080;51.750;5.888;2023-05-01T10:12:46;8.00;;;4.30;;
32319;SDS011;19080;51.750;5.888;2023-05-01T10:15:14;5.72;;;4.30;;
32319;SDS011;19080;51.750;5.888;2023-05-01T10:17:50;7.50;;;4.38;;
32319;SDS011;19080;51.750;5.888;2023-05-01T10:20:17;7.32;;;5.10;;
32319;SDS011;19080;51.750;5.888;2023-05-01T10:22:44;9.57;;;4.40;;
32319;SDS011;19080;51.750;5.888;2023-05-01T10:25:11;6.45;;;4.38;;
32319;SDS011;19080;51.750;5.888;2023-05-01T10:27:39;7.22;;;4.40;;
32319;SDS011;19080;51.750;5.888;2023-05-01T10:30:07;5.88;;;4.57;;
32319;SDS011;19080;51.750;5.888;2023-05-01T10:32:35;6.00;;;4.35;;
32319;SDS011;19080;51.750;5.888;2023-05-01T10:35:23;8.32;;;4.72;;
32319;SDS011;19080;51.750;5.888;2023-05-01T10:38:32;6.43;;;4.63;;
32319;SDS011;19080;51.750;5.888;2023-05-01T10:40:52;8.13;;;4.78;;
32319;SDS011;19080;51.750;5.888;2023-05-01T10:43:25;6.32;;;4.32;;
32319;SDS011;19080;51.750;5.888;2023-05-01T10:46:39;7.00;;;4.30;;
32319;SDS011;19080;51.750;5.888;2023-05-01T10:48:51;5.72;;;4.60;;
32319;SDS011;19080;51.750;5.888;2023-05-01T10:51:25;6.43;;;4.85;;
32319;SDS011;19080;51.750;5.888;2023-05-01T10:56:39;7.05;;;4.70;;
32319;SDS011;19080;51.750;5.888;2023-05-01T10:59:08;6.28;;;5.47;;
32319;SDS011;19080;51.750;5.888;2023-05-01T11:01:38;9.25;;;4.50;;
32319;SDS011;19080;51.750;5.888;2023-05-01T11:12:07;5.80;;;4.47;;
32319;SDS011;19080;51.750;5.888;2023-05-01T11:22:39;10.27;;;5.38;;
32319;SDS011;19080;51.750;5.888;2023-05-01T11:25:20;8.55;;;4.53;;
32319;SDS011;19080;51.750;5.888;2023-05-01T11:27:49;5.35;;;4.50;;
32319;SDS011;19080;51.750;5.888;2023-05-01T11:30:20;6.63;;;4.88;;
32319;SDS011;19080;51.750;5.888;2023-05-01T11:32:48;5.78;;;4.95;;
32319;SDS011;19080;51.750;5.888;2023-05-01T11:35:22;4.68;;;4.18;;
32319;SDS011;19080;51.750;5.888;2023-05-01T11:37:53;7.38;;;5.43;;
32319;SDS011;19080;51.750;5.888;2023-05-01T11:40:24;7.63;;;5.95;;
32319;SDS011;19080;51.750;5.888;2023-05-01T11:42:59;7.45;;;5.80;;
32319;SDS011;19080;51.750;5.888;2023-05-01T11:45:30;7.78;;;5.45;;
32319;SDS011;19080;51.750;5.888;2023-05-01T11:47:57;6.22;;;5.13;;
32319;SDS011;19080;51.750;5.888;2023-05-01T11:50:32;6.72;;;5.30;;
32319;SDS011;19080;51.750;5.888;2023-05-01T11:53:01;9.13;;;5.65;;
32319;SDS011;19080;51.750;5.888;2023-05-01T11:55:40;8.82;;;5.40;;
32319;SDS011;19080;51.750;5.888;2023-05-01T11:58:07;8.80;;;5.55;;
32319;SDS011;19080;51.750;5.888;2023-05-01T12:00:34;6.82;;;5.22;;
32319;SDS011;19080;51.750;5.888;2023-05-01T12:03:10;6.55;;;4.75;;
32319;SDS011;19080;51.750;5.888;2023-05-01T12:05:39;10.35;;;4.95;;
32319;SDS011;19080;51.750;5.888;2023-05-01T12:10:55;5.88;;;4.65;;
32319;SDS011;19080;51.750;5.888;2023-05-01T12:13:23;9.63;;;4.57;;
32319;SDS011;19080;51.750;5.888;2023-05-01T12:15:50;9.73;;;4.47;;
32319;SDS011;19080;51.750;5.888;2023-05-01T12:18:18;7.63;;;4.72;;
32319;SDS011;19080;51.750;5.888;2023-05-01T12:20:49;8.07;;;4.40;;
32319;SDS011;19080;51.750;5.888;2023-05-01T12:23:18;6.78;;;4.10;;
32319;SDS011;19080;51.750;5.888;2023-05-01T12:25:55;7.10;;;4.13;;
32319;SDS011;19080;51.750;5.888;2023-05-01T12:28:22;5.10;;;3.95;;
32319;SDS011;19080;51.750;5.888;2023-05-01T12:30:49;7.20;;;4.28;;
32319;SDS011;19080;51.750;5.888;2023-05-01T12:33:16;10.38;;;4.50;;
32319;SDS011;19080;51.750;5.888;2023-05-01T12:35:45;7.93;;;4.18;;
32319;SDS011;19080;51.750;5.888;2023-05-01T12:38:13;12.57;;;4.85;;
32319;SDS011;19080;51.750;5.888;2023-05-01T12:43:20;7.93;;;5.13;;
32319;SDS011;19080;51.750;5.888;2023-05-01T12:45:54;8.35;;;4.82;;
32319;SDS011;19080;51.750;5.888;2023-05-01T12:48:21;10.52;;;4.55;;
32319;SDS011;19080;51.750;5.888;2023-05-01T12:50:49;9.43;;;4.00;;
32319;SDS011;19080;51.750;5.888;2023-05-01T12:53:21;6.15;;;4.03;;
32319;SDS011;19080;51.750;5.888;2023-05-01T12:55:49;6.57;;;3.92;;
32319;SDS011;19080;51.750;5.888;2023-05-01T12:58:17;7.07;;;4.10;;
32319;SDS011;19080;51.750;5.888;2023-05-01T13:00:46;8.50;;;3.67;;
32319;SDS011;19080;51.750;5.888;2023-05-01T13:03:26;6.22;;;3.60;;
32319;SDS011;19080;51.750;5.888;2023-05-01T13:05:58;8.43;;;3.33;;
32319;SDS011;19080;51.750;5.888;2023-05-01T13:08:31;6.35;;;3.17;;
32319;SDS011;19080;51.750;5.888;2023-05-01T13:11:00;5.90;;;2.78;;
32319;SDS011;19080;51.750;5.888;2023-05-01T13:13:34;7.53;;;3.20;;
32319;SDS011;19080;51.750;5.888;2023-05-01T13:16:05;4.43;;;2.20;;
32319;SDS011;19080;51.750;5.888;2023-05-01T13:18:44;5.93;;;2.63;;
32319;SDS011;19080;51.750;5.888;2023-05-01T13:21:13;4.88;;;2.08;;
32319;SDS011;19080;51.750;5.888;2023-05-01T13:23:42;7.40;;;1.92;;
32319;SDS011;19080;51.750;5.888;2023-05-01T13:26:23;2.92;;;1.65;;
32319;SDS011;19080;51.750;5.888;2023-05-01T13:28:51;3.30;;;1.70;;
32319;SDS011;19080;51.750;5.888;2023-05-01T13:31:18;4.18;;;1.90;;
32319;SDS011;19080;51.750;5.888;2023-05-01T13:33:45;7.15;;;2.47;;
32319;SDS011;19080;51.750;5.888;2023-05-01T13:36:16;4.40;;;2.20;;
32319;SDS011;19080;51.750;5.888;2023-05-01T13:38:52;4.93;;;2.28;;
32319;SDS011;19080;51.750;5.888;2023-05-01T13:41:22;2.97;;;1.90;;
32319;SDS011;19080;51.750;5.888;2023-05-01T13:43:51;2.55;;;1.77;;
32319;SDS011;19080;51.750;5.888;2023-05-01T13:46:20;6.00;;;2.38;;
32319;SDS011;19080;51.750;5.888;2023-05-01T13:48:48;3.28;;;2.22;;
32319;SDS011;19080;51.750;5.888;2023-05-01T13:51:24;5.75;;;3.05;;
32319;SDS011;19080;51.750;5.888;2023-05-01T13:53:52;6.57;;;4.95;;
32319;SDS011;19080;51.750;5.888;2023-05-01T13:56:21;7.15;;;5.32;;
32319;SDS011;19080;51.750;5.888;2023-05-01T13:58:48;7.13;;;5.03;;
32319;SDS011;19080;51.750;5.888;2023-05-01T14:01:19;7.57;;;4.28;;
32319;SDS011;19080;51.750;5.888;2023-05-01T14:03:47;10.07;;;4.53;;
32319;SDS011;19080;51.750;5.888;2023-05-01T14:06:15;6.82;;;4.10;;
32319;SDS011;19080;51.750;5.888;2023-05-01T14:08:46;5.70;;;4.15;;
32319;SDS011;19080;51.750;5.888;2023-05-01T14:11:16;10.75;;;4.35;;
32319;SDS011;19080;51.750;5.888;2023-05-01T14:13:44;5.72;;;3.92;;
32319;SDS011;19080;51.750;5.888;2023-05-01T14:16:16;6.47;;;3.45;;
32319;SDS011;19080;51.750;5.888;2023-05-01T14:18:49;12.95;;;4.72;;
32319;SDS011;19080;51.750;5.888;2023-05-01T14:21:18;8.18;;;4.53;;
32319;SDS011;19080;51.750;5.888;2023-05-01T14:23:46;11.80;;;5.47;;
32319;SDS011;19080;51.750;5.888;2023-05-01T14:26:16;8.57;;;5.55;;
32319;SDS011;19080;51.750;5.888;2023-05-01T14:28:44;8.43;;;4.90;;
32319;SDS011;19080;51.750;5.888;2023-05-01T14:31:31;10.50;;;5.20;;
32319;SDS011;19080;51.750;5.888;2023-05-01T14:33:58;11.88;;;5.20;;
32319;SDS011;19080;51.750;5.888;2023-05-01T14:36:26;11.32;;;5.20;;
32319;SDS011;19080;51.750;5.888;2023-05-01T14:38:57;7.97;;;4.38;;
32319;SDS011;19080;51.750;5.888;2023-05-01T14:41:24;5.53;;;4.18;;
32319;SDS011;19080;51.750;5.888;2023-05-01T14:43:51;10.18;;;4.50;;
32319;SDS011;19080;51.750;5.888;2023-05-01T14:46:28;6.00;;;3.88;;
32319;SDS011;19080;51.750;5.888;2023-05-01T14:48:59;5.55;;;2.72;;
32319;SDS011;19080;51.750;5.888;2023-05-01T14:51:27;4.85;;;2.95;;
32319;SDS011;19080;51.750;5.888;2023-05-01T14:53:54;6.70;;;4.00;;
32319;SDS011;19080;51.750;5.888;2023-05-01T14:56:21;8.45;;;4.10;;
32319;SDS011;19080;51.750;5.888;2023-05-01T14:58:48;9.57;;;4.00;;
32319;SDS011;19080;51.750;5.888;2023-05-01T15:01:15;7.28;;;4.32;;
32319;SDS011;19080;51.750;5.888;2023-05-01T15:03:43;6.57;;;3.63;;
32319;SDS011;19080;51.750;5.888;2023-05-01T15:06:10;9.35;;;4.28;;
32319;SDS011;19080;51.750;5.888;2023-05-01T15:08:37;8.75;;;4.32;;
32319;SDS011;19080;51.750;5.888;2023-05-01T15:11:04;6.97;;;4.90;;
32319;SDS011;19080;51.750;5.888;2023-05-01T15:13:31;8.73;;;4.47;;
32319;SDS011;19080;51.750;5.888;2023-05-01T15:15:57;7.10;;;4.22;;
32319;SDS011;19080;51.750;5.888;2023-05-01T15:18:24;7.70;;;4.18;;
32319;SDS011;19080;51.750;5.888;2023-05-01T15:20:51;5.95;;;4.68;;
32319;SDS011;19080;51.750;5.888;2023-05-01T15:23:18;10.10;;;4.47;;
32319;SDS011;19080;51.750;5.888;2023-05-01T15:25:44;7.38;;;4.55;;
32319;SDS011;19080;51.750;5.888;2023-05-01T15:28:13;8.20;;;4.78;;
32319;SDS011;19080;51.750;5.888;2023-05-01T15:30:42;4.60;;;3.67;;
32319;SDS011;19080;51.750;5.888;2023-05-01T15:33:10;7.82;;;3.80;;
32319;SDS011;19080;51.750;5.888;2023-05-01T15:35:37;7.50;;;4.10;;
32319;SDS011;19080;51.750;5.888;2023-05-01T15:38:04;8.13;;;4.57;;
32319;SDS011;19080;51.750;5.888;2023-05-01T15:40:30;7.68;;;4.95;;
32319;SDS011;19080;51.750;5.888;2023-05-01T15:42:58;7.13;;;5.03;;